Allegri — 9HZP8 — position and weather

sailwx.info

Track history (hours):
 
Tides and Currents Weather Stations Pressure Air Temp Water Temp Dewpoint Dewpoint Depression Visibility Wind Speed Wind Dir Waves Ship Positions

Allegri

Last reported at 2018-Feb-18 08:37 UTC. Time now 2018-Feb-20 12:12 UTC.
Position N 42°09' E 029°03'.

Length 169 m; draft 6.2 m.

Type: Ship (hazmat cat A). MMSI: 256648972.

Date/timePositionNaut miles runAvg speedWind from/ knotsBaromVisibWave heightAir tempDewpointWater temp
2018-Feb-18 08:37N 42°09' E 029°03'7013.1
2018-Feb-18 03:14N 43°19' E 028°54'312.8
2018-Feb-18 03:01N 43°22' E 028°53'713.0
2018-Feb-18 02:30N 43°29' E 028°52'612.8
2018-Feb-18 02:00N 43°35' E 028°52'612.8
2018-Feb-18 01:31N 43°42' E 028°51'612.9
2018-Feb-18 01:00N 43°48' E 028°50'613.0
2018-Feb-18 00:31N 43°54' E 028°49'612.4
2018-Feb-18 00:01N 44°00' E 028°47'612.5
2018-Feb-17 23:30N 44°06' E 028°42'4 7.2
2018-Feb-17 23:00N 44°09' E 028°40'1 1.9
2018-Feb-17 22:30N 44°09' E 028°39'0 0.1
2018-Feb-17 22:00N 44°09' E 028°39'0 0.0
2018-Feb-17 21:30N 44°09' E 028°39'0 0.0
2018-Feb-17 21:00N 44°09' E 028°39'0 0.0
2018-Feb-17 20:30N 44°09' E 028°39'0 0.0
2018-Feb-17 20:00N 44°09' E 028°39'0 0.0
2018-Feb-17 19:30N 44°09' E 028°39'0 0.0
2018-Feb-17 19:00N 44°09' E 028°39'0 0.0
2018-Feb-17 18:30N 44°09' E 028°39'0 0.0
2018-Feb-17 18:00N 44°09' E 028°39'0 0.0
2018-Feb-17 17:30N 44°09' E 028°39'0 0.0
2018-Feb-17 17:00N 44°09' E 028°39'0 0.0
2018-Feb-17 16:30N 44°09' E 028°39'0 0.0
2018-Feb-17 16:00N 44°09' E 028°39'0 0.0
2018-Feb-17 15:30N 44°09' E 028°39'0 0.0
2018-Feb-17 15:00N 44°09' E 028°39'0 0.0
2018-Feb-17 14:30N 44°09' E 028°39'0 0.0
2018-Feb-17 14:00N 44°09' E 028°39'0 0.0
2018-Feb-17 13:30N 44°09' E 028°39'0 0.0
2018-Feb-17 13:00N 44°09' E 028°39'0 0.0
2018-Feb-17 12:30N 44°09' E 028°39'0 0.0
2018-Feb-17 12:00N 44°09' E 028°39'0 0.0
2018-Feb-17 11:30N 44°09' E 028°39'0 0.0
2018-Feb-17 11:00N 44°09' E 028°39'0 0.0
2018-Feb-17 10:30N 44°09' E 028°39'0 0.0
2018-Feb-17 10:00N 44°09' E 028°39'0 0.0
2018-Feb-17 09:30N 44°09' E 028°39'0 0.0
2018-Feb-17 09:00N 44°09' E 028°39'0 0.0
2018-Feb-17 08:30N 44°09' E 028°39'0 0.0
2018-Feb-17 08:00N 44°09' E 028°39'0 0.0
2018-Feb-17 07:30N 44°09' E 028°39'0 0.0
2018-Feb-17 07:00N 44°09' E 028°39'0 0.0
2018-Feb-17 06:30N 44°09' E 028°39'0 0.0
2018-Feb-17 06:00N 44°09' E 028°39'0 0.1
2018-Feb-17 05:31N 44°09' E 028°39'1 2.5
2018-Feb-17 05:01N 44°08' E 028°40'3 5.3
2018-Feb-17 04:30N 44°06' E 028°42'4 8.4
2018-Feb-17 04:00N 44°03' E 028°46'5 9.3
2018-Feb-17 03:31N 43°59' E 028°50'5 9.6
2018-Feb-17 03:00N 43°55' E 028°51'5 9.9
2018-Feb-17 02:30N 43°50' E 028°51'5 9.9
2018-Feb-17 02:01N 43°45' E 028°50'510.0
2018-Feb-17 01:30N 43°40' E 028°48'5 9.9
2018-Feb-17 01:00N 43°35' E 028°46'5 9.6
2018-Feb-17 00:31N 43°31' E 028°44'  
2018-Feb-14 05:43N 41°01' E 028°60'2 9.0
2018-Feb-14 05:29N 40°59' E 028°60'5 7.2
2018-Feb-14 04:51N 40°54' E 028°58'4 8.8
2018-Feb-14 04:25N 40°52' E 028°54'4 8.7
2018-Feb-14 04:00N 40°51' E 028°49'5 9.4
2018-Feb-14 03:29N 40°51' E 028°43'5 0.3
2018-Feb-13 09:03N 40°56' E 028°42'1 3.1
2018-Feb-13 08:52N 40°56' E 028°42'3 7.1
2018-Feb-13 08:27N 40°56' E 028°46'4 0.5
2018-Feb-13 00:48N 40°56' E 028°51'1 3.6
2018-Feb-13 00:27N 40°55' E 028°53'611.7
2018-Feb-12 23:58N 40°54' E 028°60'612.4
2018-Feb-12 23:30N 40°49' E 029°04'612.7
2018-Feb-12 22:59N 40°46' E 029°11'612.8
2018-Feb-12 22:29N 40°45' E 029°20'511.2
2018-Feb-12 22:01N 40°45' E 029°27'5 9.5
2018-Feb-12 21:28N 40°45' E 029°33'1 0.1
2018-Feb-12 10:59N 40°45' E 029°34'5 9.6
2018-Feb-12 10:30N 40°44' E 029°28'611.0
2018-Feb-12 10:00N 40°43' E 029°21'713.3
2018-Feb-12 09:30N 40°44' E 029°12'4 7.5
2018-Feb-12 09:00N 40°45' E 029°07'1 1.3
2018-Feb-12 08:30N 40°45' E 029°06'0 0.7
2018-Feb-12 08:00N 40°46' E 029°06'3 5.9
2018-Feb-12 07:28N 40°44' E 029°03'3 6.2
2018-Feb-12 06:59N 40°42' E 028°60'3 5.7
2018-Feb-12 06:29N 40°40' E 028°57'2 3.4
2018-Feb-12 06:00N 40°40' E 028°55'1 1.2
2018-Feb-12 05:30N 40°40' E 028°56'1 1.2
2018-Feb-12 04:59N 40°40' E 028°56'1 1.0
2018-Feb-12 04:30N 40°41' E 028°57'0 0.8
2018-Feb-12 04:00N 40°41' E 028°57'0 0.7
2018-Feb-12 03:28N 40°41' E 028°57'0 0.8
2018-Feb-12 03:00N 40°42' E 028°57'0 0.7
2018-Feb-12 02:27N 40°42' E 028°58'0 0.8
2018-Feb-12 02:00N 40°42' E 028°58'0 0.7
2018-Feb-12 01:30N 40°43' E 028°58'0 0.7
2018-Feb-12 01:00N 40°43' E 028°59'0 0.8
2018-Feb-12 00:30N 40°43' E 028°59'0 0.8
2018-Feb-12 00:00N 40°44' E 028°59'0 0.9
2018-Feb-11 23:30N 40°44' E 028°59'0 0.9
2018-Feb-11 23:00N 40°44' E 028°60'0 1.0
2018-Feb-11 22:30N 40°45' E 028°60'1 1.1
2018-Feb-11 22:00N 40°45' E 029°00'1 1.3
2018-Feb-11 21:30N 40°46' E 029°00'1 1.3
2018-Feb-11 21:00N 40°47' E 029°00'1 1.2
2018-Feb-11 20:30N 40°47' E 029°00'2 3.6
2018-Feb-11 20:00N 40°46' E 029°02'4 8.2
2018-Feb-11 19:30N 40°42' E 029°02'0 0.5
2018-Feb-11 19:00N 40°42' E 029°02'1 1.5
2018-Feb-11 18:30N 40°42' E 029°02'1 1.3
2018-Feb-11 18:00N 40°43' E 029°03'1 1.1
2018-Feb-11 17:30N 40°43' E 029°03'1 1.1
2018-Feb-11 17:00N 40°44' E 029°03'1 1.1
2018-Feb-11 16:30N 40°45' E 029°03'1 1.3
2018-Feb-11 16:00N 40°45' E 029°03'1 2.5
2018-Feb-11 15:30N 40°44' E 029°03'3 5.3
2018-Feb-11 15:00N 40°42' E 029°05'2 4.7
2018-Feb-11 14:29N 40°43' E 029°02'5 8.6
2018-Feb-11 13:57N 40°41' E 028°57'15 5.9
2018-Feb-11 11:25N 40°26' E 029°00'4 8.8
2018-Feb-11 11:00N 40°25' E 029°05'0 0.7
2018-Feb-11 10:25N 40°25' E 029°05'0 0.0
2018-Feb-11 09:55N 40°25' E 029°05'0 0.0
2018-Feb-11 09:19N 40°25' E 029°05'0 0.0
2018-Feb-11 08:49N 40°25' E 029°05'0 0.0
2018-Feb-11 08:25N 40°25' E 029°05'0 0.0
2018-Feb-11 07:55N 40°25' E 029°05'0 0.0
2018-Feb-11 07:25N 40°25' E 029°05'0 0.0
2018-Feb-11 06:49N 40°25' E 029°05'0 0.0
2018-Feb-11 06:25N 40°25' E 029°05'0 0.0
2018-Feb-11 05:49N 40°25' E 029°05'0 0.0
2018-Feb-11 05:25N 40°25' E 029°05'0 0.0
2018-Feb-11 04:55N 40°25' E 029°05'0 0.0
2018-Feb-11 04:25N 40°25' E 029°05'0 0.0
2018-Feb-11 03:55N 40°25' E 029°05'0 0.0
2018-Feb-11 03:13N 40°25' E 029°05'0 0.0
2018-Feb-11 02:43N 40°25' E 029°05'0 0.0
2018-Feb-11 02:25N 40°25' E 029°05'0 0.0
2018-Feb-11 01:55N 40°25' E 029°05'0 0.0
2018-Feb-11 01:19N 40°25' E 029°05'0 0.0
2018-Feb-11 00:43N 40°25' E 029°05'0 0.0
2018-Feb-11 00:13N 40°25' E 029°05'0 0.0
2018-Feb-10 23:55N 40°25' E 029°05'0 0.0
2018-Feb-10 23:29N 40°25' E 029°05'1 1.9
2018-Feb-10 23:00N 40°26' E 029°04'1 2.0
2018-Feb-10 22:30N 40°26' E 029°03'0 0.4
2018-Feb-10 21:57N 40°26' E 029°03'1 2.2
2018-Feb-10 21:30N 40°26' E 029°02'25411.6
2018-Feb-09 23:31N 37°57' E 024°36'013.7
2018-Feb-09 23:30N 37°57' E 024°36'1114.4
2018-Feb-09 22:42N 37°49' E 024°25'2913.3
2018-Feb-09 20:30N 37°38' E 023°51'714.3
2018-Feb-09 20:00N 37°41' E 023°42'714.8
2018-Feb-09 19:30N 37°47' E 023°39'7 0.5
2018-Feb-09 05:30N 37°54' E 023°34'  
Track history (hours):
 
Tides and Currents Weather Stations Pressure Air Temp Water Temp Dewpoint Dewpoint Depression Visibility Wind Speed Wind Dir Waves Ship Positions

Allegri

Last reported at 2018-Feb-18 08:37 UTC. Time now 2018-Feb-20 12:12 UTC.
Position N 42°09' E 029°03'.

Length 169 m; draft 6.2 m.

Type: Ship (hazmat cat A). MMSI: 256648972.

Date/timePositionNaut miles runAvg speedWind from/ knotsBaromVisibWave heightAir tempDewpointWater temp
2018-Feb-18 08:37N 42°09' E 029°03'7013.1
2018-Feb-18 03:14N 43°19' E 028°54'312.8
2018-Feb-18 03:01N 43°22' E 028°53'713.0
2018-Feb-18 02:30N 43°29' E 028°52'612.8
2018-Feb-18 02:00N 43°35' E 028°52'612.8
2018-Feb-18 01:31N 43°42' E 028°51'612.9
2018-Feb-18 01:00N 43°48' E 028°50'613.0
2018-Feb-18 00:31N 43°54' E 028°49'612.4
2018-Feb-18 00:01N 44°00' E 028°47'612.5
2018-Feb-17 23:30N 44°06' E 028°42'4 7.2
2018-Feb-17 23:00N 44°09' E 028°40'1 1.9
2018-Feb-17 22:30N 44°09' E 028°39'0 0.1
2018-Feb-17 22:00N 44°09' E 028°39'0 0.0
2018-Feb-17 21:30N 44°09' E 028°39'0 0.0
2018-Feb-17 21:00N 44°09' E 028°39'0 0.0
2018-Feb-17 20:30N 44°09' E 028°39'0 0.0
2018-Feb-17 20:00N 44°09' E 028°39'0 0.0
2018-Feb-17 19:30N 44°09' E 028°39'0 0.0
2018-Feb-17 19:00N 44°09' E 028°39'0 0.0
2018-Feb-17 18:30N 44°09' E 028°39'0 0.0
2018-Feb-17 18:00N 44°09' E 028°39'0 0.0
2018-Feb-17 17:30N 44°09' E 028°39'0 0.0
2018-Feb-17 17:00N 44°09' E 028°39'0 0.0
2018-Feb-17 16:30N 44°09' E 028°39'0 0.0
2018-Feb-17 16:00N 44°09' E 028°39'0 0.0
2018-Feb-17 15:30N 44°09' E 028°39'0 0.0
2018-Feb-17 15:00N 44°09' E 028°39'0 0.0
2018-Feb-17 14:30N 44°09' E 028°39'0 0.0
2018-Feb-17 14:00N 44°09' E 028°39'0 0.0
2018-Feb-17 13:30N 44°09' E 028°39'0 0.0
2018-Feb-17 13:00N 44°09' E 028°39'0 0.0
2018-Feb-17 12:30N 44°09' E 028°39'0 0.0
2018-Feb-17 12:00N 44°09' E 028°39'0 0.0
2018-Feb-17 11:30N 44°09' E 028°39'0 0.0
2018-Feb-17 11:00N 44°09' E 028°39'0 0.0
2018-Feb-17 10:30N 44°09' E 028°39'0 0.0
2018-Feb-17 10:00N 44°09' E 028°39'0 0.0
2018-Feb-17 09:30N 44°09' E 028°39'0 0.0
2018-Feb-17 09:00N 44°09' E 028°39'0 0.0
2018-Feb-17 08:30N 44°09' E 028°39'0 0.0
2018-Feb-17 08:00N 44°09' E 028°39'0 0.0
2018-Feb-17 07:30N 44°09' E 028°39'0 0.0
2018-Feb-17 07:00N 44°09' E 028°39'0 0.0
2018-Feb-17 06:30N 44°09' E 028°39'0 0.0
2018-Feb-17 06:00N 44°09' E 028°39'0 0.1
2018-Feb-17 05:31N 44°09' E 028°39'1 2.5
2018-Feb-17 05:01N 44°08' E 028°40'3 5.3
2018-Feb-17 04:30N 44°06' E 028°42'4 8.4
2018-Feb-17 04:00N 44°03' E 028°46'5 9.3
2018-Feb-17 03:31N 43°59' E 028°50'5 9.6
2018-Feb-17 03:00N 43°55' E 028°51'5 9.9
2018-Feb-17 02:30N 43°50' E 028°51'5 9.9
2018-Feb-17 02:01N 43°45' E 028°50'510.0
2018-Feb-17 01:30N 43°40' E 028°48'5 9.9
2018-Feb-17 01:00N 43°35' E 028°46'5 9.6
2018-Feb-17 00:31N 43°31' E 028°44'  
2018-Feb-14 05:43N 41°01' E 028°60'2 9.0
2018-Feb-14 05:29N 40°59' E 028°60'5 7.2
2018-Feb-14 04:51N 40°54' E 028°58'4 8.8
2018-Feb-14 04:25N 40°52' E 028°54'4 8.7
2018-Feb-14 04:00N 40°51' E 028°49'5 9.4
2018-Feb-14 03:29N 40°51' E 028°43'5 0.3
2018-Feb-13 09:03N 40°56' E 028°42'1 3.1
2018-Feb-13 08:52N 40°56' E 028°42'3 7.1
2018-Feb-13 08:27N 40°56' E 028°46'4 0.5
2018-Feb-13 00:48N 40°56' E 028°51'1 3.6
2018-Feb-13 00:27N 40°55' E 028°53'611.7
2018-Feb-12 23:58N 40°54' E 028°60'612.4
2018-Feb-12 23:30N 40°49' E 029°04'612.7
2018-Feb-12 22:59N 40°46' E 029°11'612.8
2018-Feb-12 22:29N 40°45' E 029°20'511.2
2018-Feb-12 22:01N 40°45' E 029°27'5 9.5
2018-Feb-12 21:28N 40°45' E 029°33'1 0.1
2018-Feb-12 10:59N 40°45' E 029°34'5 9.6
2018-Feb-12 10:30N 40°44' E 029°28'611.0
2018-Feb-12 10:00N 40°43' E 029°21'713.3
2018-Feb-12 09:30N 40°44' E 029°12'4 7.5
2018-Feb-12 09:00N 40°45' E 029°07'1 1.3
2018-Feb-12 08:30N 40°45' E 029°06'0 0.7
2018-Feb-12 08:00N 40°46' E 029°06'3 5.9
2018-Feb-12 07:28N 40°44' E 029°03'3 6.2
2018-Feb-12 06:59N 40°42' E 028°60'3 5.7
2018-Feb-12 06:29N 40°40' E 028°57'2 3.4
2018-Feb-12 06:00N 40°40' E 028°55'1 1.2
2018-Feb-12 05:30N 40°40' E 028°56'1 1.2
2018-Feb-12 04:59N 40°40' E 028°56'1 1.0
2018-Feb-12 04:30N 40°41' E 028°57'0 0.8
2018-Feb-12 04:00N 40°41' E 028°57'0 0.7
2018-Feb-12 03:28N 40°41' E 028°57'0 0.8
2018-Feb-12 03:00N 40°42' E 028°57'0 0.7
2018-Feb-12 02:27N 40°42' E 028°58'0 0.8
2018-Feb-12 02:00N 40°42' E 028°58'0 0.7
2018-Feb-12 01:30N 40°43' E 028°58'0 0.7
2018-Feb-12 01:00N 40°43' E 028°59'0 0.8
2018-Feb-12 00:30N 40°43' E 028°59'0 0.8
2018-Feb-12 00:00N 40°44' E 028°59'0 0.9
2018-Feb-11 23:30N 40°44' E 028°59'0 0.9
2018-Feb-11 23:00N 40°44' E 028°60'0 1.0
2018-Feb-11 22:30N 40°45' E 028°60'1 1.1
2018-Feb-11 22:00N 40°45' E 029°00'1 1.3
2018-Feb-11 21:30N 40°46' E 029°00'1 1.3
2018-Feb-11 21:00N 40°47' E 029°00'1 1.2
2018-Feb-11 20:30N 40°47' E 029°00'2 3.6
2018-Feb-11 20:00N 40°46' E 029°02'4 8.2
2018-Feb-11 19:30N 40°42' E 029°02'0 0.5
2018-Feb-11 19:00N 40°42' E 029°02'1 1.5
2018-Feb-11 18:30N 40°42' E 029°02'1 1.3
2018-Feb-11 18:00N 40°43' E 029°03'1 1.1
2018-Feb-11 17:30N 40°43' E 029°03'1 1.1
2018-Feb-11 17:00N 40°44' E 029°03'1 1.1
2018-Feb-11 16:30N 40°45' E 029°03'1 1.3
2018-Feb-11 16:00N 40°45' E 029°03'1 2.5
2018-Feb-11 15:30N 40°44' E 029°03'3 5.3
2018-Feb-11 15:00N 40°42' E 029°05'2 4.7
2018-Feb-11 14:29N 40°43' E 029°02'5 8.6
2018-Feb-11 13:57N 40°41' E 028°57'15 5.9
2018-Feb-11 11:25N 40°26' E 029°00'4 8.8
2018-Feb-11 11:00N 40°25' E 029°05'0 0.7
2018-Feb-11 10:25N 40°25' E 029°05'0 0.0
2018-Feb-11 09:55N 40°25' E 029°05'0 0.0
2018-Feb-11 09:19N 40°25' E 029°05'0 0.0
2018-Feb-11 08:49N 40°25' E 029°05'0 0.0
2018-Feb-11 08:25N 40°25' E 029°05'0 0.0
2018-Feb-11 07:55N 40°25' E 029°05'0 0.0
2018-Feb-11 07:25N 40°25' E 029°05'0 0.0
2018-Feb-11 06:49N 40°25' E 029°05'0 0.0
2018-Feb-11 06:25N 40°25' E 029°05'0 0.0
2018-Feb-11 05:49N 40°25' E 029°05'0 0.0
2018-Feb-11 05:25N 40°25' E 029°05'0 0.0
2018-Feb-11 04:55N 40°25' E 029°05'0 0.0
2018-Feb-11 04:25N 40°25' E 029°05'0 0.0
2018-Feb-11 03:55N 40°25' E 029°05'0 0.0
2018-Feb-11 03:13N 40°25' E 029°05'0 0.0
2018-Feb-11 02:43N 40°25' E 029°05'0 0.0
2018-Feb-11 02:25N 40°25' E 029°05'0 0.0
2018-Feb-11 01:55N 40°25' E 029°05'0 0.0
2018-Feb-11 01:19N 40°25' E 029°05'0 0.0
2018-Feb-11 00:43N 40°25' E 029°05'0 0.0
2018-Feb-11 00:13N 40°25' E 029°05'0 0.0
2018-Feb-10 23:55N 40°25' E 029°05'0 0.0
2018-Feb-10 23:29N 40°25' E 029°05'1 1.9
2018-Feb-10 23:00N 40°26' E 029°04'1 2.0
2018-Feb-10 22:30N 40°26' E 029°03'0 0.4
2018-Feb-10 21:57N 40°26' E 029°03'1 2.2
2018-Feb-10 21:30N 40°26' E 029°02'25411.6
2018-Feb-09 23:31N 37°57' E 024°36'013.7
2018-Feb-09 23:30N 37°57' E 024°36'1114.4
2018-Feb-09 22:42N 37°49' E 024°25'2913.3
2018-Feb-09 20:30N 37°38' E 023°51'714.3
2018-Feb-09 20:00N 37°41' E 023°42'714.8
2018-Feb-09 19:30N 37°47' E 023°39'7 0.5
2018-Feb-09 05:30N 37°54' E 023°34'  

Dump ship's entire track history